Denver International Airport
KDEN : now visible

Airfield :











YOU CAN JOIN US ON...

 
LOGIN :

Register | Disclaimer

   EN    FR    IT 

 









Legend :    VFR   Marginal VFR   IFR   Intensive IFR   Very Intensive IFR
Visi :
Ceiling :
>= 8 km
>= 3000ft
5 to 8 km
1000 to 3000 ft
1500m to 5 km
500 to 1000 ft
800 to 1500m
200 to 500 ft
< 800m
< 200 ft
Symbols :   Thunderstorms  Fog  Heavy snow  Heavy precipitations  Wind > 20 kt






- Airport Elevation : 5431 ft
- IATA code : DEN


KDEN - Denver International

CURRENT METAR :
  • 241353Z VRB04KT 6SM HZ FEW120 SCT160 BKN220 M06/M09 A2982 RMK AO2 SLP127 ACSL OMTNS DSNT NW T10611089

EXPIRED METARs :
  • 241253Z 00000KT 7SM SCT220 M06/M08 A2982 RMK AO2 SLP124 T10561078
  • 241153Z 00000KT 8SM FEW220 M04/M07 A2982 RMK AO2 SLP116 T10441072 11033 21056 56025

TAF KDEN
Valid from the 24 at 12:00 until the 25 at 18:00 UTC


241120Z 2412/2518 22006KT P6SM FEW100 SCT220
FM241500 VRB05KT P6SM SCT220
FM241900 08010KT P6SM SCT220
TEMPO 2422/2501 28012G26KT
FM250300 21010KT P6SM SCT060 BKN220
FM250500 35014G21KT P6SM -RASN FEW006 BKN020
FM250900 02012G24KT 5SM -SN OVC015
FM251200 02012G18KT 3SM -SN OVC008
PROB30 2514/2518 1/2SM SN OVC008
KZDV FIR / North America



MET'MAP, your aeronautical weather chart ! - Copyright ORBIFLY December 2007 - Disclaimer

ORBIFLY MET'MAP TEAM :

Programming & Development : Alexandra Zaïnal
Concept & original design : Baudouin d'Aumeries
Assistance for programming : Marc-Olivier Méhu
Technical & hardware support : Manuel Goepfert

Contact : metmap@orbifly.com




SOURCES & CREDITS :

   NOAA       Earth
Advisory